createdAt,value
2018-11-23T00:01:41.541Z,1.20
2018-11-23T00:04:10.449Z,1.20
2018-11-23T00:06:38.767Z,1.22
2018-11-23T00:09:07.087Z,1.20
2018-11-23T00:11:35.415Z,1.16
2018-11-23T00:14:03.750Z,1.13
2018-11-23T00:16:31.512Z,1.07
2018-11-23T00:18:59.831Z,1.03
2018-11-23T00:21:28.743Z,1.00
2018-11-23T00:23:57.075Z,1.00
2018-11-23T00:26:24.824Z,1.03
2018-11-23T00:28:53.741Z,1.07
2018-11-23T00:31:22.064Z,1.14
2018-11-23T00:33:50.387Z,1.18
2018-11-23T00:36:18.266Z,1.22
2018-11-23T00:38:47.046Z,1.26
2018-11-23T00:41:15.383Z,1.24
2018-11-23T00:43:43.708Z,1.25
2018-11-23T00:46:12.043Z,1.27
2018-11-23T00:48:39.859Z,1.29
2018-11-23T00:51:08.165Z,1.22
2018-11-23T00:53:36.501Z,1.13
2018-11-23T00:56:04.833Z,1.07
2018-11-23T00:58:33.190Z,1.05
2018-11-23T01:01:02.677Z,0.98
2018-11-23T01:03:29.816Z,0.94
2018-11-23T01:05:58.725Z,0.93
2018-11-23T01:08:26.471Z,0.89
2018-11-23T01:10:55.380Z,0.90
2018-11-23T01:13:23.426Z,0.93
2018-11-23T01:15:52.326Z,0.91
2018-11-23T01:18:20.093Z,0.86
2018-11-23T01:20:48.999Z,0.80
2018-11-23T01:23:17.330Z,0.79
2018-11-23T01:25:45.072Z,0.76
2018-11-23T01:28:13.401Z,0.76
2018-11-23T01:30:42.304Z,0.75
2018-11-23T01:33:10.621Z,0.71
2018-11-23T01:35:38.371Z,0.67
2018-11-23T01:38:07.267Z,0.63
2018-11-23T01:40:35.008Z,0.62
2018-11-23T01:43:03.915Z,0.62
2018-11-23T01:45:32.265Z,0.62
2018-11-23T01:48:00.595Z,0.63
2018-11-23T01:50:28.908Z,0.62
2018-11-23T01:52:56.676Z,0.62
2018-11-23T01:55:25.578Z,0.59
2018-11-23T01:57:53.908Z,0.59
2018-11-23T02:00:22.233Z,0.56
2018-11-23T02:02:50.553Z,0.53
2018-11-23T02:05:18.882Z,0.46
2018-11-23T02:07:46.634Z,0.48
2018-11-23T02:10:15.539Z,0.51
2018-11-23T02:12:43.864Z,0.57
2018-11-23T02:15:11.613Z,0.63
2018-11-23T02:17:39.936Z,0.71
2018-11-23T02:20:08.269Z,0.69
2018-11-23T02:22:36.597Z,0.64
2018-11-23T02:25:05.498Z,0.61
2018-11-23T02:27:33.237Z,0.58
2018-11-23T02:30:02.145Z,0.58
2018-11-23T02:32:30.466Z,0.59
2018-11-23T02:34:58.204Z,0.61
2018-11-23T02:37:26.557Z,0.65
2018-11-23T02:39:55.439Z,0.66
2018-11-23T02:42:23.210Z,0.67
2018-11-23T02:44:51.532Z,0.73
2018-11-23T02:47:20.440Z,0.76
2018-11-23T02:49:48.183Z,0.78
2018-11-23T02:52:16.516Z,0.73
2018-11-23T02:54:44.853Z,0.63
2018-11-23T02:57:13.191Z,0.56
2018-11-23T02:59:42.096Z,0.53
2018-11-23T03:02:10.188Z,0.52
2018-11-23T03:04:38.215Z,0.51
2018-11-23T03:07:07.109Z,0.58
2018-11-23T03:09:34.864Z,0.60
2018-11-23T03:12:03.194Z,0.61
2018-11-23T03:14:32.096Z,0.56
2018-11-23T03:17:00.422Z,0.54
2018-11-23T03:19:28.163Z,0.50
2018-11-23T03:21:57.071Z,0.52
2018-11-23T03:24:25.403Z,0.55
2018-11-23T03:26:53.156Z,0.55
2018-11-23T03:29:21.477Z,0.53
2018-11-23T03:31:49.800Z,0.49
2018-11-23T03:34:18.716Z,0.47
2018-11-23T03:36:47.031Z,0.43
2018-11-23T03:39:14.774Z,0.34
2018-11-23T03:41:43.683Z,0.29
2018-11-23T03:44:11.453Z,0.28
2018-11-23T03:46:40.349Z,0.29
2018-11-23T03:49:08.670Z,0.35
2018-11-23T03:51:36.424Z,0.46
2018-11-23T03:54:05.339Z,0.54
2018-11-23T03:56:33.698Z,0.63
2018-11-23T03:59:01.450Z,0.70
2018-11-23T04:01:30.351Z,0.73
2018-11-23T04:03:58.677Z,0.72
2018-11-23T04:06:27.013Z,0.69
2018-11-23T04:08:55.342Z,0.66
2018-11-23T04:11:23.088Z,0.62
2018-11-23T04:13:52.238Z,0.62
2018-11-23T04:16:19.989Z,0.61
2018-11-23T04:18:48.883Z,0.61
2018-11-23T04:21:16.622Z,0.61
2018-11-23T04:23:44.949Z,0.53
2018-11-23T04:26:13.855Z,0.45
2018-11-23T04:28:42.184Z,0.35
2018-11-23T04:31:09.930Z,0.33
2018-11-23T04:33:38.825Z,0.29
2018-11-23T04:36:06.584Z,0.27
2018-11-23T04:38:34.899Z,0.21
2018-11-23T04:41:03.803Z,0.19
2018-11-23T04:43:32.140Z,0.16
2018-11-23T04:45:59.961Z,0.07
2018-11-23T04:48:28.798Z,0.06
2018-11-23T04:50:57.126Z,0.12
2018-11-23T04:53:25.440Z,0.18
2018-11-23T04:55:53.851Z,0.19
2018-11-23T04:58:22.212Z,0.17
2018-11-23T05:00:50.533Z,0.12
2018-11-23T05:03:18.854Z,0.07
2018-11-23T05:05:47.166Z,0.05
2018-11-23T05:08:14.917Z,0.06
2018-11-23T05:10:43.818Z,0.05
2018-11-23T05:13:12.147Z,0.05
2018-11-23T05:15:40.472Z,0.08
2018-11-23T05:18:08.791Z,0.05
2018-11-23T05:20:37.110Z,0.06
2018-11-23T05:23:05.430Z,0.11
2018-11-23T05:25:33.755Z,0.16
2018-11-23T05:28:01.497Z,0.18
2018-11-23T05:30:30.399Z,0.23
2018-11-23T05:32:58.736Z,0.27
2018-11-23T05:35:27.062Z,0.31
2018-11-23T05:37:54.803Z,0.36
2018-11-23T05:40:23.124Z,0.37
2018-11-23T05:42:52.037Z,0.36
2018-11-23T05:45:20.359Z,0.34
2018-11-23T05:47:48.672Z,0.30
2018-11-23T05:50:16.414Z,0.23
2018-11-23T05:52:45.327Z,0.18
2018-11-23T05:55:13.636Z,0.16
2018-11-23T05:57:41.378Z,0.15
2018-11-23T06:00:09.836Z,0.17
2018-11-23T06:02:38.643Z,0.17
2018-11-23T06:05:06.967Z,0.16
2018-11-23T06:07:34.724Z,0.19
2018-11-23T06:10:03.060Z,0.21
2018-11-23T06:12:31.475Z,0.19
2018-11-23T06:14:59.798Z,0.21
2018-11-23T06:17:28.706Z,0.23
2018-11-23T06:19:57.019Z,0.20
2018-11-23T06:22:24.768Z,0.17
2018-11-23T06:24:54.407Z,0.15
2018-11-23T06:27:21.471Z,0.17
2018-11-23T06:29:50.410Z,0.19
2018-11-23T06:32:18.711Z,0.20
2018-11-23T06:34:46.677Z,0.19
2018-11-23T06:37:15.358Z,0.18
2018-11-23T06:39:43.105Z,0.16
2018-11-23T06:42:11.467Z,0.17
2018-11-23T06:44:39.749Z,0.21
2018-11-23T06:47:08.657Z,0.27
2018-11-23T06:49:36.987Z,0.18
2018-11-23T06:52:04.732Z,0.14
2018-11-23T06:54:33.570Z,0.12
2018-11-23T06:57:01.889Z,0.12
2018-11-23T06:59:30.213Z,0.18
2018-11-23T07:01:59.149Z,0.20
2018-11-23T07:04:26.890Z,0.19
2018-11-23T07:06:55.798Z,0.14
2018-11-23T07:09:23.987Z,0.09
2018-11-23T07:11:52.454Z,0.04
2018-11-23T07:14:20.772Z,0.01
2018-11-23T07:16:48.522Z,-0.02
2018-11-23T07:19:17.432Z,-0.07
2018-11-23T07:21:45.765Z,-0.09
2018-11-23T07:24:14.101Z,-0.07
2018-11-23T07:26:41.884Z,-0.11
2018-11-23T07:29:10.768Z,-0.15
2018-11-23T07:31:38.513Z,-0.09
2018-11-23T07:34:07.424Z,0.00
2018-11-23T07:36:35.738Z,0.04
2018-11-23T07:39:03.481Z,0.08
2018-11-23T07:41:40.899Z,0.12
2018-11-23T07:44:08.691Z,0.15
2018-11-23T07:46:37.592Z,0.15
2018-11-23T07:49:05.915Z,0.12
2018-11-23T07:51:39.047Z,0.14
2018-11-23T07:54:02.564Z,0.14
2018-11-23T07:56:30.887Z,0.13
2018-11-23T07:58:59.224Z,0.08
2018-11-23T08:01:26.967Z,0.00
2018-11-23T08:03:55.897Z,-0.01
2018-11-23T08:06:23.868Z,0.02
2018-11-23T08:08:52.550Z,0.01
2018-11-23T08:11:20.880Z,-0.02
2018-11-23T08:13:49.246Z,-0.04
2018-11-23T08:16:17.049Z,0.03
2018-11-23T08:18:45.963Z,0.05
2018-11-23T08:21:14.590Z,0.01
2018-11-23T08:23:43.097Z,0.01
2018-11-23T08:26:11.423Z,0.06
2018-11-23T08:28:39.749Z,0.09
2018-11-23T08:31:07.622Z,0.13
2018-11-23T08:33:35.870Z,0.17
2018-11-23T08:36:04.866Z,0.08
2018-11-23T08:38:33.680Z,0.07
2018-11-23T08:41:02.272Z,0.05
2018-11-23T08:43:30.603Z,0.08
2018-11-23T08:45:59.804Z,0.07
2018-11-23T08:48:28.373Z,0.07
2018-11-23T08:50:56.346Z,0.14
2018-11-23T08:53:27.944Z,0.18
2018-11-23T08:55:53.973Z,0.21
2018-11-23T08:58:21.748Z,0.24
2018-11-23T09:00:50.077Z,0.23
2018-11-23T09:03:20.366Z,0.24
2018-11-23T09:05:49.686Z,0.24
2018-11-23T09:08:19.148Z,0.31
2018-11-23T09:10:48.023Z,0.43
2018-11-23T09:13:17.155Z,0.47
2018-11-23T09:15:46.373Z,0.43
2018-11-23T09:18:14.522Z,0.40
2018-11-23T09:20:43.784Z,0.39
2018-11-23T09:23:12.734Z,0.35
2018-11-23T09:25:41.064Z,0.28
2018-11-23T09:28:11.179Z,0.30
2018-11-23T09:30:39.573Z,0.37
2018-11-23T09:33:08.138Z,0.44
2018-11-23T09:35:37.274Z,0.53
2018-11-23T09:38:05.780Z,0.59
2018-11-23T09:40:34.334Z,0.63
2018-11-23T09:43:03.799Z,0.72
2018-11-23T09:45:32.324Z,0.76
2018-11-23T09:48:00.082Z,0.76
2018-11-23T09:50:29.698Z,0.76
2018-11-23T09:52:57.510Z,0.72
2018-11-23T09:55:26.345Z,0.72
2018-11-23T09:57:54.767Z,0.75
2018-11-23T10:00:23.067Z,0.76
2018-11-23T10:02:50.838Z,0.83
2018-11-23T10:05:19.768Z,0.89
2018-11-23T10:07:47.566Z,0.96
2018-11-23T10:10:16.473Z,1.04
2018-11-23T10:12:44.350Z,1.09
2018-11-23T10:15:14.146Z,1.09
2018-11-23T10:17:42.080Z,1.10
2018-11-23T10:20:11.954Z,1.11
2018-11-23T10:22:40.524Z,1.12
2018-11-23T10:25:08.799Z,1.16
2018-11-23T10:27:37.151Z,1.25
2018-11-23T10:30:04.888Z,1.35
2018-11-23T10:32:33.814Z,1.42
2018-11-23T10:35:02.163Z,1.48
2018-11-23T10:37:30.491Z,1.55
2018-11-23T10:39:58.826Z,1.60
2018-11-23T10:42:27.190Z,1.62
2018-11-23T10:44:55.515Z,1.64
2018-11-23T10:47:23.846Z,1.62
2018-11-23T10:49:52.184Z,1.56
2018-11-23T10:52:19.936Z,1.55
2018-11-23T10:54:48.263Z,1.57
2018-11-23T10:57:17.172Z,1.63
2018-11-23T10:59:45.520Z,1.70
2018-11-23T11:02:13.254Z,1.75
2018-11-23T11:04:41.596Z,1.79
2018-11-23T11:07:10.538Z,1.84
2018-11-23T11:09:39.547Z,1.88
2018-11-23T11:12:07.536Z,1.89
2018-11-23T11:14:35.657Z,1.91
2018-11-23T11:17:03.648Z,1.91
2018-11-23T11:19:32.539Z,1.91
2018-11-23T11:22:00.903Z,1.90
2018-11-23T11:24:28.649Z,1.88
2018-11-23T11:26:57.219Z,1.86
2018-11-23T11:29:25.884Z,1.88
2018-11-23T11:31:54.282Z,1.91
2018-11-23T11:34:22.031Z,1.91
2018-11-23T11:36:50.387Z,1.92
2018-11-23T11:39:19.281Z,1.90
2018-11-23T11:41:47.595Z,1.91
2018-11-23T11:44:15.343Z,1.89
2018-11-23T11:46:44.274Z,1.88
2018-11-23T11:49:12.603Z,1.90
2018-11-23T11:51:41.093Z,1.89
2018-11-23T11:54:09.347Z,1.84
2018-11-23T11:56:37.721Z,1.80
2018-11-23T11:59:06.072Z,1.79
2018-11-23T12:01:35.168Z,1.81
2018-11-23T12:04:03.506Z,1.84
2018-11-23T12:06:31.238Z,1.87
2018-11-23T12:09:00.457Z,1.87
2018-11-23T12:11:28.253Z,1.88
2018-11-23T12:13:57.173Z,1.86
2018-11-23T12:16:25.004Z,1.85
2018-11-23T12:18:54.365Z,1.86
2018-11-23T12:21:22.605Z,1.89
2018-11-23T12:23:50.701Z,1.88
2018-11-23T12:26:18.453Z,1.92
2018-11-23T12:28:46.795Z,1.95
2018-11-23T12:31:15.680Z,2.01
2018-11-23T12:33:44.073Z,2.04
2018-11-23T12:36:12.405Z,2.06
2018-11-23T12:38:42.971Z,2.08
2018-11-23T12:41:09.060Z,2.09
2018-11-23T12:43:37.410Z,2.11
2018-11-23T12:46:05.947Z,2.11
2018-11-23T12:48:34.058Z,2.10
2018-11-23T12:51:02.391Z,2.13
2018-11-23T12:53:30.147Z,2.17
2018-11-23T12:55:59.072Z,2.20
2018-11-23T12:58:26.817Z,2.21
2018-11-23T13:00:55.722Z,2.21
2018-11-23T13:03:24.045Z,2.22
2018-11-23T13:05:52.366Z,2.18
2018-11-23T13:08:20.141Z,2.20
2018-11-23T13:10:48.428Z,2.25
2018-11-23T13:13:16.753Z,2.30
2018-11-23T13:15:46.625Z,2.32
2018-11-23T13:18:14.252Z,2.36
2018-11-23T13:20:42.582Z,2.40
2018-11-23T13:23:10.329Z,2.39
2018-11-23T13:25:39.244Z,2.38
2018-11-23T13:28:07.613Z,2.38
2018-11-23T13:30:35.926Z,2.37
2018-11-23T13:33:04.267Z,2.36
2018-11-23T13:35:32.020Z,2.37
2018-11-23T13:38:00.720Z,2.36
2018-11-23T13:40:29.641Z,2.36
2018-11-23T13:42:57.967Z,2.36
2018-11-23T13:45:26.308Z,2.38
2018-11-23T13:47:54.623Z,2.41
2018-11-23T13:50:22.970Z,2.34
2018-11-23T13:52:51.140Z,2.29
2018-11-23T13:55:19.473Z,2.26
2018-11-23T13:57:48.550Z,2.22
2018-11-23T14:00:17.454Z,2.22
2018-11-23T14:02:45.222Z,2.20
2018-11-23T14:05:14.130Z,2.15
2018-11-23T14:07:42.455Z,2.12
2018-11-23T14:10:10.784Z,2.09
2018-11-23T14:12:39.120Z,2.02
2018-11-23T14:15:07.455Z,1.95
2018-11-23T14:17:35.784Z,1.95
2018-11-23T14:20:04.114Z,1.96
2018-11-23T14:22:32.437Z,1.96
2018-11-23T14:25:00.764Z,1.93
2018-11-23T14:27:29.090Z,1.92
2018-11-23T14:29:57.435Z,1.92
2018-11-23T14:32:25.775Z,1.94
2018-11-23T14:34:54.098Z,1.94
2018-11-23T14:37:22.535Z,1.92
2018-11-23T14:39:50.868Z,1.92
2018-11-23T14:42:18.617Z,1.91
2018-11-23T14:44:46.947Z,1.92
2018-11-23T14:47:15.276Z,1.96
2018-11-23T14:49:44.584Z,1.97
2018-11-23T14:52:12.371Z,1.98
2018-11-23T14:54:42.870Z,1.99
2018-11-23T14:57:09.492Z,2.00
2018-11-23T14:59:37.831Z,2.03
2018-11-23T15:02:07.101Z,2.08
2018-11-23T15:04:35.966Z,2.10
2018-11-23T15:07:04.516Z,2.11
2018-11-23T15:09:32.617Z,2.14
2018-11-23T15:12:00.954Z,2.17
2018-11-23T15:14:28.706Z,2.22
2018-11-23T15:16:57.620Z,2.24
2018-11-23T15:19:25.361Z,2.25
2018-11-23T15:21:54.270Z,2.22
2018-11-23T15:24:22.601Z,2.23
2018-11-23T15:26:50.928Z,2.25
2018-11-23T15:29:19.280Z,2.29
2018-11-23T15:31:47.611Z,2.30
2018-11-23T15:34:15.951Z,2.33
2018-11-23T15:36:43.689Z,2.35
2018-11-23T15:39:12.632Z,2.35
2018-11-23T15:41:40.384Z,2.34
2018-11-23T15:44:09.303Z,2.31
2018-11-23T15:46:37.939Z,2.29
2018-11-23T15:49:05.733Z,2.31
2018-11-23T15:51:35.623Z,2.36
2018-11-23T15:54:03.365Z,2.38
2018-11-23T15:56:31.723Z,2.37
2018-11-23T15:59:00.633Z,2.35
2018-11-23T16:01:28.957Z,2.35
2018-11-23T16:03:57.329Z,2.32
2018-11-23T16:06:26.301Z,2.26
2018-11-23T16:08:54.046Z,2.21
2018-11-23T16:11:22.947Z,2.19
2018-11-23T16:13:50.690Z,2.15
2018-11-23T16:16:19.622Z,2.13
2018-11-23T16:18:47.773Z,2.12
2018-11-23T16:21:17.102Z,2.14
2018-11-23T16:23:45.439Z,2.15
2018-11-23T16:26:14.806Z,2.13
2018-11-23T16:28:43.102Z,2.12
2018-11-23T16:31:11.428Z,2.11
2018-11-23T16:33:40.078Z,2.11
2018-11-23T16:36:07.961Z,2.08
2018-11-23T16:38:36.836Z,2.05
2018-11-23T16:41:05.125Z,2.03
2018-11-23T16:43:33.466Z,2.01
2018-11-23T16:46:01.792Z,2.02
2018-11-23T16:48:30.322Z,2.03
2018-11-23T16:50:58.732Z,2.06
2018-11-23T16:53:27.459Z,2.09
2018-11-23T16:55:56.394Z,2.10
2018-11-23T16:58:25.081Z,2.09
2018-11-23T17:00:53.609Z,2.09
2018-11-23T17:03:22.323Z,2.11
2018-11-23T17:05:51.353Z,2.12
2018-11-23T17:08:20.449Z,2.13
2018-11-23T17:10:48.296Z,2.14
2018-11-23T17:13:17.821Z,2.15
2018-11-23T17:15:47.610Z,2.17
2018-11-23T17:18:15.691Z,2.20
2018-11-23T17:20:44.159Z,2.22
2018-11-23T17:23:12.691Z,2.21
2018-11-23T17:25:40.796Z,2.22
2018-11-23T17:28:11.682Z,2.24
2018-11-23T17:30:41.513Z,2.27
2018-11-23T17:33:10.371Z,2.32
2018-11-23T17:35:38.676Z,2.33
2018-11-23T17:38:06.427Z,2.30
2018-11-23T17:40:35.822Z,2.27
2018-11-23T17:43:04.173Z,2.27
2018-11-23T17:45:32.763Z,2.27
2018-11-23T17:48:01.121Z,2.32
2018-11-23T17:50:29.931Z,2.35
2018-11-23T17:52:58.273Z,2.41
2018-11-23T17:55:26.895Z,2.40
2018-11-23T17:57:54.624Z,2.41
2018-11-23T18:00:26.519Z,2.46
2018-11-23T18:02:53.492Z,2.48
2018-11-23T18:05:21.732Z,2.46
2018-11-23T18:07:50.666Z,2.48
2018-11-23T18:10:19.227Z,2.53
2018-11-23T18:12:47.697Z,2.56
2018-11-23T18:15:16.370Z,2.61
2018-11-23T18:17:44.123Z,2.66
2018-11-23T18:20:13.031Z,2.67
2018-11-23T18:22:41.461Z,2.64
2018-11-23T18:25:09.181Z,2.64
2018-11-23T18:27:38.099Z,2.65
2018-11-23T18:30:06.631Z,2.65
2018-11-23T18:32:35.365Z,2.67
2018-11-23T18:35:03.756Z,2.71
2018-11-23T18:37:32.799Z,2.76
2018-11-23T18:40:01.126Z,2.81
2018-11-23T18:42:29.454Z,2.85
2018-11-23T18:45:04.446Z,2.84
2018-11-23T18:47:32.805Z,2.80
2018-11-23T18:50:01.215Z,2.76
2018-11-23T18:52:28.961Z,2.75
2018-11-23T18:54:57.285Z,2.77
2018-11-23T18:57:25.654Z,2.79
2018-11-23T18:59:54.548Z,2.80
2018-11-23T19:02:22.923Z,2.81
2018-11-23T19:04:50.988Z,2.80
2018-11-23T19:07:20.156Z,2.79
2018-11-23T19:09:48.796Z,2.78
2018-11-23T19:12:16.540Z,2.78
2018-11-23T19:14:45.603Z,2.79
2018-11-23T19:17:15.207Z,2.79
2018-11-23T19:19:43.560Z,2.79
2018-11-23T19:22:11.919Z,2.81
2018-11-23T19:24:39.854Z,2.84
2018-11-23T19:27:08.769Z,2.88
2018-11-23T19:29:36.660Z,2.90
2018-11-23T19:32:05.513Z,2.92
2018-11-23T19:34:33.838Z,2.93
2018-11-23T19:37:01.754Z,2.94
2018-11-23T19:39:30.647Z,2.94
2018-11-23T19:41:58.438Z,2.95
2018-11-23T19:44:28.254Z,2.95
2018-11-23T19:46:57.110Z,2.99
2018-11-23T19:49:26.343Z,3.02
2018-11-23T19:51:54.096Z,3.05
2018-11-23T19:54:23.483Z,3.08
2018-11-23T19:56:51.865Z,3.11
2018-11-23T19:59:20.412Z,3.13
2018-11-23T20:01:48.716Z,3.12
2018-11-23T20:04:17.454Z,3.13
2018-11-23T20:06:47.148Z,3.12
2018-11-23T20:09:16.252Z,3.11
2018-11-23T20:11:44.742Z,3.09
2018-11-23T20:14:14.546Z,3.11
2018-11-23T20:16:42.873Z,3.13
2018-11-23T20:19:12.009Z,3.16
2018-11-23T20:21:40.244Z,3.18
2018-11-23T20:24:09.130Z,3.18
2018-11-23T20:26:37.920Z,3.15
2018-11-23T20:29:06.665Z,3.15
2018-11-23T20:31:36.415Z,3.17
2018-11-23T20:34:06.337Z,3.16
2018-11-23T20:36:36.182Z,3.16
2018-11-23T20:39:05.022Z,3.19
2018-11-23T20:41:33.949Z,3.19
2018-11-23T20:44:02.821Z,3.18
2018-11-23T20:46:31.444Z,3.15
2018-11-23T20:49:00.786Z,3.14
2018-11-23T20:51:29.413Z,3.15
2018-11-23T20:53:57.971Z,3.16
2018-11-23T20:56:27.280Z,3.20
2018-11-23T20:58:56.615Z,3.22
2018-11-23T21:01:25.197Z,3.24
2018-11-23T21:03:53.720Z,3.28
2018-11-23T21:06:21.988Z,3.31
2018-11-23T21:08:51.928Z,3.34
2018-11-23T21:11:20.578Z,3.33
2018-11-23T21:13:49.672Z,3.33
2018-11-23T21:16:17.814Z,3.34
2018-11-23T21:18:46.953Z,3.34
2018-11-23T21:21:15.317Z,3.33
2018-11-23T21:23:43.902Z,3.27
2018-11-23T21:26:12.287Z,3.25
2018-11-23T21:28:40.798Z,3.25
2018-11-23T21:31:10.075Z,3.29
2018-11-23T21:33:38.444Z,3.30
2018-11-23T21:36:08.200Z,3.31
2018-11-23T21:38:36.206Z,3.29
2018-11-23T21:41:05.649Z,3.30
2018-11-23T21:43:33.257Z,3.26
2018-11-23T21:46:02.864Z,3.23
2018-11-23T21:48:31.331Z,3.24
2018-11-23T21:50:59.664Z,3.24
2018-11-23T21:53:28.387Z,3.24
2018-11-23T21:55:56.964Z,3.24
2018-11-23T21:58:26.290Z,3.27
2018-11-23T22:00:54.633Z,3.31
2018-11-23T22:03:24.373Z,3.33
2018-11-23T22:05:51.594Z,3.34
2018-11-23T22:08:19.776Z,3.36
2018-11-23T22:10:50.226Z,3.33
2018-11-23T22:13:18.401Z,3.34
2018-11-23T22:15:46.786Z,3.37
2018-11-23T22:18:15.290Z,3.39
2018-11-23T22:20:43.646Z,3.41
2018-11-23T22:23:12.266Z,3.45
2018-11-23T22:25:40.651Z,3.47
2018-11-23T22:28:08.463Z,3.47
2018-11-23T22:30:37.541Z,3.49
2018-11-23T22:33:05.271Z,3.49
2018-11-23T22:35:34.249Z,3.50
2018-11-23T22:38:02.996Z,3.51
2018-11-23T22:40:30.904Z,3.50
2018-11-23T22:42:59.948Z,3.50
2018-11-23T22:45:28.456Z,3.53
2018-11-23T22:47:56.298Z,3.55
2018-11-23T22:50:26.282Z,3.59
2018-11-23T22:52:54.023Z,3.61
2018-11-23T22:55:22.831Z,3.59
2018-11-23T22:57:51.796Z,3.57
2018-11-23T23:00:20.745Z,3.56
2018-11-23T23:02:49.914Z,3.53
2018-11-23T23:05:19.316Z,3.50
2018-11-23T23:07:48.245Z,3.49
2018-11-23T23:10:17.268Z,3.47
2018-11-23T23:12:45.663Z,3.46
2018-11-23T23:15:14.569Z,3.50
2018-11-23T23:17:43.990Z,3.54
2018-11-23T23:20:12.305Z,3.54
2018-11-23T23:22:41.500Z,3.57
2018-11-23T23:25:10.191Z,3.60
2018-11-23T23:27:38.545Z,3.64
2018-11-23T23:30:06.314Z,3.65
2018-11-23T23:32:35.566Z,3.68
2018-11-23T23:35:03.956Z,3.70
2018-11-23T23:37:33.147Z,3.72
2018-11-23T23:40:02.304Z,3.75
2018-11-23T23:42:31.550Z,3.79
2018-11-23T23:45:00.521Z,3.79
2018-11-23T23:47:31.516Z,3.81
2018-11-23T23:50:00.139Z,3.83
2018-11-23T23:52:28.568Z,3.82
2018-11-23T23:54:57.536Z,3.80
2018-11-23T23:57:25.898Z,3.80
2018-11-23T23:59:54.601Z,3.82
